createdAt,value
2018-03-03T00:01:05.336Z,48.72
2018-03-03T00:03:33.018Z,47.17
2018-03-03T00:06:00.609Z,43.28
2018-03-03T00:08:28.248Z,49.38
2018-03-03T00:10:56.617Z,51.50
2018-03-03T00:13:24.287Z,51.83
2018-03-03T00:15:51.937Z,46.28
2018-03-03T00:18:19.604Z,50.95
2018-03-03T00:20:47.188Z,48.63
2018-03-03T00:23:14.715Z,51.42
2018-03-03T00:25:42.316Z,49.47
2018-03-03T00:28:10.573Z,46.78
2018-03-03T00:30:38.067Z,49.60
2018-03-03T00:33:05.576Z,48.63
2018-03-03T00:35:33.166Z,51.22
2018-03-03T00:38:01.447Z,47.17
2018-03-03T00:40:29.691Z,46.55
2018-03-03T00:42:57.190Z,49.20
2018-03-03T00:45:24.678Z,52.67
2018-03-03T00:47:52.236Z,54.90
2018-03-03T00:50:19.759Z,56.45
2018-03-03T00:52:48.031Z,49.97
2018-03-03T00:55:16.288Z,53.78
2018-03-03T00:57:43.879Z,54.67
2018-03-03T01:00:11.366Z,50.78
2018-03-03T01:02:38.869Z,55.35
2018-03-03T01:05:06.908Z,51.42
2018-03-03T01:07:34.437Z,62.70
2018-03-03T01:10:01.934Z,65.28
2018-03-03T01:12:29.439Z,57.13
2018-03-03T01:14:57.695Z,55.63
2018-03-03T01:17:25.277Z,57.47
2018-03-03T01:19:53.541Z,55.70
2018-03-03T01:22:21.831Z,58.35
2018-03-03T01:24:50.093Z,57.10
2018-03-03T01:27:18.376Z,59.83
2018-03-03T01:29:46.631Z,55.63
2018-03-03T01:32:14.140Z,56.03
2018-03-03T01:34:41.631Z,55.80
2018-03-03T01:37:09.134Z,54.08
2018-03-03T01:39:37.383Z,57.47
2018-03-03T01:42:04.975Z,54.05
2018-03-03T01:44:32.524Z,58.05
2018-03-03T01:47:00.784Z,60.75
2018-03-03T01:49:28.305Z,56.60
2018-03-03T01:51:55.801Z,65.30
2018-03-03T01:54:23.379Z,62.78
2018-03-03T01:56:51.643Z,61.80
2018-03-03T01:59:19.900Z,61.58
2018-03-03T02:01:47.389Z,59.22
2018-03-03T02:04:16.466Z,63.00
2018-03-03T02:06:43.963Z,56.90
2018-03-03T02:09:11.459Z,61.92
2018-03-03T02:11:39.052Z,60.25
2018-03-03T02:14:07.314Z,64.80
2018-03-03T02:16:34.822Z,60.05
2018-03-03T02:19:02.309Z,61.05
2018-03-03T02:21:29.822Z,63.95
2018-03-03T02:23:57.303Z,59.67
2018-03-03T02:26:24.802Z,60.05
2018-03-03T02:28:52.314Z,61.15
2018-03-03T02:31:20.769Z,59.72
2018-03-03T02:33:49.022Z,65.20
2018-03-03T02:36:16.521Z,64.10
2018-03-03T02:38:44.021Z,64.82
2018-03-03T02:41:11.624Z,59.88
2018-03-03T02:43:39.913Z,61.65
2018-03-03T02:46:07.411Z,68.03
2018-03-03T02:48:34.923Z,65.87
2018-03-03T02:51:03.189Z,68.03
2018-03-03T02:53:31.462Z,62.35
2018-03-03T02:55:59.757Z,67.43
2018-03-03T02:58:28.133Z,64.57
2018-03-03T03:00:56.409Z,66.95
2018-03-03T03:03:24.689Z,64.22
2018-03-03T03:05:52.183Z,56.95
2018-03-03T03:08:19.690Z,61.47
2018-03-03T03:10:47.967Z,56.78
2018-03-03T03:13:16.253Z,65.53
2018-03-03T03:15:44.514Z,66.20
2018-03-03T03:18:12.020Z,62.10
2018-03-03T03:20:39.507Z,63.58
2018-03-03T03:23:06.998Z,62.10
2018-03-03T03:25:35.276Z,59.25
2018-03-03T03:28:03.550Z,60.97
2018-03-03T03:30:31.837Z,61.08
2018-03-03T03:33:00.103Z,62.05
2018-03-03T03:35:28.374Z,55.30
2018-03-03T03:37:56.759Z,58.67
2018-03-03T03:40:25.110Z,60.10
2018-03-03T03:42:52.606Z,65.18
2018-03-03T03:45:20.846Z,60.55
2018-03-03T03:47:48.370Z,65.60
2018-03-03T03:50:15.858Z,59.53
2018-03-03T03:52:43.359Z,61.00
2018-03-03T03:55:10.911Z,61.45
2018-03-03T03:57:39.171Z,63.30
2018-03-03T04:00:06.743Z,72.65
2018-03-03T04:02:35.020Z,67.07
2018-03-03T04:05:03.279Z,57.42
2018-03-03T04:07:30.782Z,72.15
2018-03-03T04:09:58.314Z,59.78
2018-03-03T04:12:26.587Z,64.65
2018-03-03T04:14:54.864Z,60.33
2018-03-03T04:17:23.128Z,58.42
2018-03-03T04:19:50.622Z,63.22
2018-03-03T04:22:18.121Z,64.80
2018-03-03T04:24:45.612Z,63.97
2018-03-03T04:27:13.888Z,63.17
2018-03-03T04:29:42.155Z,65.03
2018-03-03T04:32:09.654Z,58.87
2018-03-03T04:34:37.185Z,70.25
2018-03-03T04:37:05.458Z,64.57
2018-03-03T04:39:32.951Z,61.75
2018-03-03T04:42:00.469Z,56.78
2018-03-03T04:44:28.743Z,65.47
2018-03-03T04:46:56.944Z,64.45
2018-03-03T04:49:25.203Z,58.45
2018-03-03T04:51:52.698Z,57.85
2018-03-03T04:54:20.189Z,65.72
2018-03-03T04:56:47.681Z,66.87
2018-03-03T05:02:22.613Z,56.47
2018-03-03T05:04:51.036Z,59.17
2018-03-03T05:07:19.459Z,62.40
2018-03-03T05:09:46.943Z,65.20
2018-03-03T05:12:15.407Z,62.78
2018-03-03T05:14:58.547Z,53.55
2018-03-03T05:17:26.056Z,68.22
2018-03-03T05:19:59.153Z,56.83
2018-03-03T05:22:32.325Z,62.85
2018-03-03T05:28:21.592Z,67.47
2018-03-03T05:31:03.987Z,60.97
2018-03-03T05:33:37.268Z,62.70
2018-03-03T05:36:10.567Z,66.95
2018-03-03T05:41:50.566Z,69.35
2018-03-03T05:44:24.518Z,61.30
2018-03-03T05:46:57.637Z,54.35
2018-03-03T05:49:30.854Z,70.12
2018-03-03T05:52:04.982Z,66.93
2018-03-03T05:57:37.979Z,68.12
2018-03-03T06:00:11.831Z,58.47
2018-03-03T06:02:45.192Z,62.75
2018-03-03T06:05:18.437Z,63.92
2018-03-03T06:07:51.516Z,69.80
2018-03-03T06:10:24.608Z,63.25
2018-03-03T06:12:52.096Z,63.50
2018-03-03T06:15:19.596Z,66.95
2018-03-03T06:17:47.078Z,64.82
2018-03-03T06:20:14.578Z,58.53
2018-03-03T06:22:42.835Z,62.92
2018-03-03T06:25:10.419Z,69.87
2018-03-03T06:27:38.669Z,62.90
2018-03-03T06:30:06.266Z,68.43
2018-03-03T06:32:34.532Z,78.35
2018-03-03T06:35:02.795Z,63.97
2018-03-03T06:37:31.110Z,57.88
2018-03-03T06:39:59.344Z,65.28
2018-03-03T06:42:26.832Z,73.62
2018-03-03T06:44:55.090Z,68.72
2018-03-03T06:47:23.374Z,58.60
2018-03-03T06:49:51.628Z,67.80
2018-03-03T06:52:19.133Z,57.38
2018-03-03T06:54:46.668Z,65.15
2018-03-03T06:57:14.946Z,67.28
2018-03-03T06:59:43.192Z,64.15
2018-03-03T07:02:10.778Z,65.12
2018-03-03T07:04:39.154Z,69.05
2018-03-03T07:07:06.658Z,67.45
2018-03-03T07:09:34.181Z,60.08
2018-03-03T07:12:01.677Z,72.93
2018-03-03T07:17:29.158Z,65.12
2018-03-03T07:19:56.639Z,64.82
2018-03-03T07:22:24.256Z,71.57
2018-03-03T07:24:51.733Z,71.55
2018-03-03T07:27:19.229Z,69.03
2018-03-03T07:29:46.708Z,60.15
2018-03-03T07:32:14.957Z,62.67
2018-03-03T07:34:42.445Z,71.00
2018-03-03T07:37:10.714Z,57.35
2018-03-03T07:39:38.985Z,69.50
2018-03-03T07:42:06.474Z,67.68
2018-03-03T07:44:34.065Z,69.12
2018-03-03T07:47:01.552Z,65.78
2018-03-03T07:49:29.038Z,69.15
2018-03-03T07:51:57.306Z,68.68
2018-03-03T07:54:25.562Z,73.22
2018-03-03T07:57:04.821Z,70.70
2018-03-03T07:59:33.093Z,70.03
2018-03-03T08:02:00.650Z,66.00
2018-03-03T08:04:28.901Z,66.97
2018-03-03T08:06:56.483Z,69.68
2018-03-03T08:09:24.750Z,67.87
2018-03-03T08:11:52.348Z,67.93
2018-03-03T08:14:19.839Z,72.15
2018-03-03T08:16:47.330Z,65.85
2018-03-03T08:19:15.644Z,66.40
2018-03-03T08:21:43.101Z,68.00
2018-03-03T08:24:10.619Z,65.80
2018-03-03T08:26:38.222Z,65.22
2018-03-03T08:29:05.793Z,64.90
2018-03-03T08:31:33.331Z,63.97
2018-03-03T08:34:00.916Z,67.75
2018-03-03T08:36:28.462Z,60.65
2018-03-03T08:38:55.942Z,64.28
2018-03-03T08:41:23.448Z,68.78
2018-03-03T08:43:51.789Z,64.43
2018-03-03T08:46:19.297Z,60.67
2018-03-03T08:48:46.789Z,62.65
2018-03-03T08:51:15.054Z,59.15
2018-03-03T08:53:42.605Z,55.95
2018-03-03T08:56:10.116Z,66.18
2018-03-03T08:58:37.615Z,58.80
2018-03-03T09:01:05.107Z,53.78
2018-03-03T09:03:32.630Z,56.55
2018-03-03T09:06:00.194Z,56.60
2018-03-03T09:08:27.786Z,56.47
2018-03-03T09:10:55.328Z,47.38
2018-03-03T09:13:23.515Z,50.72
2018-03-03T09:15:51.007Z,51.60
2018-03-03T09:18:18.491Z,53.10
2018-03-03T09:20:46.745Z,49.35
2018-03-03T09:23:14.348Z,52.03
2018-03-03T09:25:41.992Z,50.25
2018-03-03T09:28:10.268Z,51.80
2018-03-03T09:30:38.543Z,50.10
2018-03-03T09:33:06.812Z,54.60
2018-03-03T09:35:35.086Z,56.58
2018-03-03T09:38:03.364Z,49.60
2018-03-03T09:40:31.664Z,46.03
2018-03-03T09:42:59.157Z,48.33
2018-03-03T09:45:26.652Z,44.42
2018-03-03T09:47:55.205Z,47.42
2018-03-03T09:50:22.799Z,52.50
2018-03-03T09:52:51.069Z,50.83
2018-03-03T09:55:18.557Z,52.10
2018-03-03T09:57:46.047Z,46.10
2018-03-03T10:00:13.549Z,42.88
2018-03-03T10:02:41.803Z,42.17
2018-03-03T10:05:09.415Z,42.22
2018-03-03T10:07:40.404Z,41.13
2018-03-03T10:10:08.683Z,43.08
2018-03-03T10:12:36.204Z,42.28
2018-03-03T10:15:04.595Z,46.03
2018-03-03T10:17:32.106Z,41.97
2018-03-03T10:20:00.370Z,42.40
2018-03-03T10:22:28.709Z,43.07
2018-03-03T10:24:56.195Z,46.77
2018-03-03T10:27:23.681Z,45.03
2018-03-03T10:29:51.932Z,43.13
2018-03-03T10:32:19.417Z,40.90
2018-03-03T10:34:47.670Z,45.57
2018-03-03T10:37:15.252Z,42.67
2018-03-03T10:39:43.545Z,42.97
2018-03-03T10:42:11.825Z,44.47
2018-03-03T10:44:39.395Z,43.93
2018-03-03T10:47:06.886Z,44.30
2018-03-03T10:49:34.408Z,37.73
2018-03-03T10:52:05.187Z,37.33
2018-03-03T10:54:32.774Z,38.33
2018-03-03T10:57:01.034Z,39.63
2018-03-03T10:59:28.610Z,36.27
2018-03-03T11:01:56.857Z,36.73
2018-03-03T11:04:25.878Z,34.03
2018-03-03T11:06:54.122Z,32.73
2018-03-03T11:09:21.721Z,30.67
2018-03-03T11:11:50.017Z,35.63
2018-03-03T11:14:17.505Z,32.80
2018-03-03T11:16:45.035Z,34.37
2018-03-03T11:19:12.531Z,34.23
2018-03-03T11:21:40.167Z,35.90
2018-03-03T11:24:07.654Z,35.10
2018-03-03T11:26:35.152Z,33.10
2018-03-03T11:29:03.401Z,30.60
2018-03-03T11:31:30.986Z,33.83
2018-03-03T11:33:59.256Z,31.20
2018-03-03T11:36:27.516Z,31.40
2018-03-03T11:38:54.995Z,31.07
2018-03-03T11:41:23.243Z,31.63
2018-03-03T11:43:50.849Z,31.77
2018-03-03T11:46:18.432Z,35.50
2018-03-03T11:48:46.661Z,36.57
2018-03-03T11:51:15.030Z,31.63
2018-03-03T11:53:42.520Z,31.43
2018-03-03T11:56:10.001Z,36.00
2018-03-03T11:58:37.492Z,36.57
2018-03-03T12:01:05.002Z,34.23
2018-03-03T12:03:32.549Z,32.83
2018-03-03T12:06:00.037Z,35.67
2018-03-03T12:08:27.549Z,39.97
2018-03-03T12:10:55.933Z,33.20
2018-03-03T12:13:24.254Z,32.87
2018-03-03T12:15:51.751Z,32.20
2018-03-03T12:18:19.336Z,39.00
2018-03-03T12:20:47.626Z,33.47
2018-03-03T12:23:15.128Z,34.40
2018-03-03T12:25:42.629Z,40.70
2018-03-03T12:28:10.917Z,34.00
2018-03-03T12:30:38.396Z,36.70
2018-03-03T12:33:05.954Z,35.90
2018-03-03T12:35:33.427Z,35.10
2018-03-03T12:38:00.912Z,33.70
2018-03-03T12:40:28.493Z,31.90
2018-03-03T12:42:56.753Z,34.80
2018-03-03T12:45:24.240Z,35.33
2018-03-03T12:47:52.497Z,35.97
2018-03-03T12:50:19.994Z,40.20
2018-03-03T12:52:47.490Z,35.00
2018-03-03T12:55:14.974Z,39.40
2018-03-03T12:57:43.243Z,43.03
2018-03-03T13:00:10.821Z,39.43
2018-03-03T13:02:39.078Z,38.47
2018-03-03T13:05:06.579Z,48.53
2018-03-03T13:07:34.074Z,38.57
2018-03-03T13:10:01.571Z,45.27
2018-03-03T13:12:29.864Z,40.00
2018-03-03T13:14:57.352Z,42.47
2018-03-03T13:17:24.850Z,34.63
2018-03-03T13:19:52.334Z,34.07
2018-03-03T13:22:19.823Z,33.00
2018-03-03T13:24:47.311Z,36.40
2018-03-03T13:27:14.926Z,33.47
2018-03-03T13:32:33.066Z,36.37
2018-03-03T13:35:01.338Z,34.50
2018-03-03T13:37:29.603Z,34.97
2018-03-03T13:39:57.900Z,34.13
2018-03-03T13:42:25.465Z,30.87
2018-03-03T13:44:52.954Z,35.07
2018-03-03T13:47:20.453Z,30.90
2018-03-03T13:49:47.932Z,35.00
2018-03-03T13:52:16.194Z,37.30
2018-03-03T13:54:44.494Z,33.00
2018-03-03T13:57:11.988Z,33.80
2018-03-03T13:59:39.469Z,34.50
2018-03-03T14:02:06.984Z,35.60
2018-03-03T14:04:34.462Z,33.77
2018-03-03T14:07:01.974Z,32.43
2018-03-03T14:09:31.072Z,30.27
2018-03-03T14:11:58.551Z,33.03
2018-03-03T14:14:26.066Z,28.57
2018-03-03T14:16:53.557Z,31.43
2018-03-03T14:19:21.046Z,30.90
2018-03-03T14:21:48.562Z,28.53
2018-03-03T14:24:16.835Z,30.43
2018-03-03T14:26:45.086Z,31.13
2018-03-03T14:29:13.367Z,28.83
2018-03-03T14:31:41.626Z,29.40
2018-03-03T14:34:09.242Z,28.52
2018-03-03T14:36:36.726Z,27.47
2018-03-03T14:39:04.227Z,27.48
2018-03-03T14:41:32.519Z,30.65
2018-03-03T14:44:00.778Z,27.20
2018-03-03T14:46:29.078Z,26.92
2018-03-03T14:48:56.580Z,29.20
2018-03-03T14:51:24.067Z,28.40
2018-03-03T14:53:51.651Z,29.23
2018-03-03T14:56:19.993Z,33.28
2018-03-03T14:58:47.497Z,29.75
2018-03-03T15:01:14.980Z,28.83
2018-03-03T15:03:42.475Z,27.73
2018-03-03T15:06:10.069Z,28.05
2018-03-03T15:08:37.585Z,29.27
2018-03-03T15:11:05.069Z,28.85
2018-03-03T15:13:33.366Z,27.35
2018-03-03T15:16:01.038Z,30.98
2018-03-03T15:18:28.580Z,26.08
2018-03-03T15:20:56.840Z,29.05
2018-03-03T15:23:24.410Z,27.90
2018-03-03T15:25:52.655Z,26.80
2018-03-03T15:28:20.139Z,29.35
2018-03-03T15:30:48.431Z,29.63
2018-03-03T15:33:15.992Z,26.87
2018-03-03T15:35:44.248Z,29.37
2018-03-03T15:38:11.741Z,26.92
2018-03-03T15:40:39.273Z,26.23
2018-03-03T15:43:07.534Z,26.42
2018-03-03T15:45:35.053Z,30.83
2018-03-03T15:48:02.569Z,29.50
2018-03-03T15:50:30.827Z,27.27
2018-03-03T15:52:58.366Z,28.15
2018-03-03T15:55:25.857Z,29.92
2018-03-03T15:57:54.137Z,29.77
2018-03-03T16:00:22.386Z,30.73
2018-03-03T16:02:49.873Z,35.47
2018-03-03T16:05:18.151Z,30.23
2018-03-03T16:07:46.441Z,31.77
2018-03-03T16:10:13.983Z,36.15
2018-03-03T16:12:42.299Z,29.73
2018-03-03T16:15:09.952Z,27.98
2018-03-03T16:17:37.435Z,33.80
2018-03-03T16:20:04.930Z,33.35
2018-03-03T16:22:32.432Z,30.62
2018-03-03T16:25:00.018Z,34.08
2018-03-03T16:27:27.591Z,31.83
2018-03-03T16:29:55.906Z,30.42
2018-03-03T16:32:24.176Z,31.98
2018-03-03T16:34:52.505Z,33.88
2018-03-03T16:37:20.001Z,30.70
2018-03-03T16:39:47.499Z,33.90
2018-03-03T16:42:14.994Z,32.65
2018-03-03T16:44:42.494Z,33.05
2018-03-03T16:47:10.802Z,33.05
2018-03-03T16:49:38.331Z,34.58
2018-03-03T16:52:06.628Z,33.95
2018-03-03T16:54:34.146Z,37.15
2018-03-03T16:57:01.637Z,35.50
2018-03-03T16:59:29.193Z,34.55
2018-03-03T17:01:56.706Z,36.72
2018-03-03T17:04:24.193Z,39.42
2018-03-03T17:06:52.561Z,41.37
2018-03-03T17:09:20.858Z,35.10
2018-03-03T17:11:49.118Z,37.85
2018-03-03T17:14:16.604Z,35.88
2018-03-03T17:16:44.099Z,39.92
2018-03-03T17:19:12.287Z,33.85
2018-03-03T17:21:39.783Z,38.15
2018-03-03T17:24:08.053Z,39.35
2018-03-03T17:26:36.337Z,39.85
2018-03-03T17:29:04.587Z,36.03
2018-03-03T17:31:32.077Z,34.08
2018-03-03T17:33:59.581Z,37.53
2018-03-03T17:36:27.078Z,37.17
2018-03-03T17:38:55.368Z,37.40
2018-03-03T17:41:22.878Z,38.20
2018-03-03T17:43:50.381Z,37.67
2018-03-03T17:46:18.648Z,39.50
2018-03-03T17:48:46.923Z,35.13
2018-03-03T17:51:14.447Z,42.67
2018-03-03T17:53:42.018Z,40.30
2018-03-03T17:56:09.514Z,37.88
2018-03-03T17:58:36.993Z,38.40
2018-03-03T18:01:04.503Z,37.05
2018-03-03T18:03:31.978Z,48.17
2018-03-03T18:06:00.262Z,37.72
2018-03-03T18:08:27.814Z,39.33
2018-03-03T18:10:56.095Z,53.20
2018-03-03T18:13:31.599Z,59.03
2018-03-03T18:15:59.395Z,51.15
2018-03-03T18:18:28.432Z,61.85
2018-03-03T18:20:55.920Z,58.87
2018-03-03T18:23:23.727Z,66.25
2018-03-03T18:25:52.033Z,64.85
2018-03-03T18:28:19.537Z,68.40
2018-03-03T18:30:47.070Z,70.37
2018-03-03T18:33:14.619Z,85.00
2018-03-03T18:35:42.117Z,86.65
2018-03-03T18:38:09.616Z,89.13
2018-03-03T18:40:37.119Z,108.93
2018-03-03T18:43:04.615Z,76.70
2018-03-03T18:45:33.055Z,69.82
2018-03-03T18:48:00.805Z,58.97
2018-03-03T18:50:28.297Z,46.30
2018-03-03T18:52:55.833Z,50.40
2018-03-03T18:55:23.367Z,44.40
2018-03-03T18:57:50.902Z,43.83
2018-03-03T19:00:19.178Z,41.83
2018-03-03T19:02:46.662Z,40.40
2018-03-03T19:05:14.146Z,38.95
2018-03-03T19:07:41.667Z,40.72
2018-03-03T19:10:09.156Z,39.30
2018-03-03T19:12:36.690Z,38.92
2018-03-03T19:15:04.200Z,38.97
2018-03-03T19:17:32.466Z,39.03
2018-03-03T19:19:59.957Z,38.22
2018-03-03T19:22:28.254Z,39.55
2018-03-03T19:24:55.736Z,37.17
2018-03-03T19:27:23.228Z,42.03
2018-03-03T19:29:50.789Z,40.60
2018-03-03T19:32:18.271Z,42.45
2018-03-03T19:34:46.516Z,45.67
2018-03-03T19:37:14.015Z,42.80
2018-03-03T19:39:41.501Z,56.33
2018-03-03T19:42:08.992Z,42.10
2018-03-03T19:44:36.487Z,45.80
2018-03-03T19:47:03.985Z,42.90
2018-03-03T19:49:31.466Z,59.55
2018-03-03T19:51:59.079Z,53.80
2018-03-03T19:54:26.555Z,51.88
2018-03-03T19:56:57.617Z,50.65
2018-03-03T19:59:25.272Z,49.22
2018-03-03T20:01:52.768Z,51.40
2018-03-03T20:04:21.015Z,50.78
2018-03-03T20:06:48.517Z,48.17
2018-03-03T20:09:16.070Z,52.75
2018-03-03T20:11:44.320Z,49.58
2018-03-03T20:14:11.897Z,49.53
2018-03-03T20:16:40.144Z,49.67
2018-03-03T20:19:07.641Z,49.08
2018-03-03T20:21:36.009Z,51.00
2018-03-03T20:24:04.276Z,52.60
2018-03-03T20:26:33.258Z,53.00
2018-03-03T20:29:00.779Z,47.58
2018-03-03T20:31:28.308Z,50.15
2018-03-03T20:33:56.580Z,52.95
2018-03-03T20:36:24.850Z,50.08
2018-03-03T20:38:53.108Z,51.78
2018-03-03T20:41:20.623Z,49.17
2018-03-03T20:43:48.139Z,55.08
2018-03-03T20:46:15.704Z,49.22
2018-03-03T20:48:43.950Z,47.80
2018-03-03T20:51:11.454Z,51.20
2018-03-03T20:53:39.703Z,50.53
2018-03-03T20:56:07.371Z,52.50
2018-03-03T20:58:35.654Z,67.68
2018-03-03T21:01:03.923Z,60.63
2018-03-03T21:03:31.408Z,59.20
2018-03-03T21:05:58.913Z,53.47
2018-03-03T21:08:26.402Z,59.35
2018-03-03T21:10:53.886Z,51.13
2018-03-03T21:13:21.400Z,53.17
2018-03-03T21:15:48.916Z,54.72
2018-03-03T21:18:16.410Z,51.80
2018-03-03T21:20:43.927Z,56.70
2018-03-03T21:23:11.414Z,56.37
2018-03-03T21:25:38.919Z,55.78
2018-03-03T21:28:07.200Z,58.63
2018-03-03T21:30:35.475Z,60.15
2018-03-03T21:33:03.720Z,60.75
2018-03-03T21:35:31.312Z,57.67
2018-03-03T21:37:59.593Z,54.95
2018-03-03T21:40:27.867Z,61.50
2018-03-03T21:42:56.258Z,53.45
2018-03-03T21:45:23.726Z,65.10
2018-03-03T21:47:51.225Z,77.75
2018-03-03T21:50:18.744Z,72.82
2018-03-03T21:52:46.239Z,57.47
2018-03-03T21:55:13.740Z,62.42
2018-03-03T21:57:42.112Z,59.30
2018-03-03T22:00:10.361Z,56.10
2018-03-03T22:02:37.843Z,62.67
2018-03-03T22:05:06.135Z,67.80
2018-03-03T22:07:33.689Z,69.87
2018-03-03T22:10:01.934Z,68.93
2018-03-03T22:12:29.442Z,67.65
2018-03-03T22:14:57.000Z,67.53
2018-03-03T22:17:24.475Z,60.42
2018-03-03T22:19:51.992Z,65.18
2018-03-03T22:22:20.243Z,72.65
2018-03-03T22:24:47.739Z,67.43
2018-03-03T22:27:15.317Z,66.47
2018-03-03T22:29:42.791Z,63.53
2018-03-03T22:32:10.309Z,66.12
2018-03-03T22:34:38.577Z,64.30
2018-03-03T22:37:06.853Z,64.28
2018-03-03T22:39:35.100Z,67.35
2018-03-03T22:42:02.602Z,65.93
2018-03-03T22:44:30.861Z,70.12
2018-03-03T22:46:59.138Z,69.32
2018-03-03T22:49:27.465Z,75.68
2018-03-03T22:51:54.971Z,65.45
2018-03-03T22:54:23.261Z,89.90
2018-03-03T22:56:51.600Z,77.18
2018-03-03T22:59:19.086Z,65.50
2018-03-03T23:01:47.333Z,58.78
2018-03-03T23:04:14.836Z,66.65
2018-03-03T23:06:43.096Z,61.88
2018-03-03T23:09:11.365Z,61.92
2018-03-03T23:11:39.675Z,67.57
2018-03-03T23:14:07.202Z,70.68
2018-03-03T23:16:34.666Z,68.18
2018-03-03T23:19:02.191Z,60.50
2018-03-03T23:21:29.680Z,65.18
2018-03-03T23:23:57.951Z,67.72
2018-03-03T23:26:25.539Z,67.85
2018-03-03T23:28:53.872Z,68.40
2018-03-03T23:31:21.358Z,67.57
2018-03-03T23:33:49.625Z,71.78
2018-03-03T23:36:17.298Z,80.97
2018-03-03T23:38:45.558Z,68.62
2018-03-03T23:41:13.140Z,70.18
2018-03-03T23:43:40.698Z,66.30
2018-03-03T23:46:08.953Z,67.57
2018-03-03T23:48:36.471Z,64.87
2018-03-03T23:51:04.015Z,74.93
2018-03-03T23:53:31.497Z,74.37
2018-03-03T23:55:59.026Z,70.87
2018-03-03T23:58:26.512Z,67.78
